createdAt,value
2022-10-23T00:00:25.143Z,5.8
2022-10-23T00:05:25.107Z,6.2
2022-10-23T00:10:25.106Z,5.7
2022-10-23T00:15:25.104Z,5.7
2022-10-23T00:20:25.106Z,6.1
2022-10-23T00:25:25.108Z,6.2
2022-10-23T00:30:25.192Z,6.2
2022-10-23T00:35:25.096Z,6.2
2022-10-23T00:40:25.104Z,5.8
2022-10-23T00:45:25.115Z,5.8
2022-10-23T00:50:25.107Z,6.1
2022-10-23T00:55:25.103Z,6.2
2022-10-23T01:00:25.093Z,5.8
2022-10-23T01:05:25.114Z,5.8
2022-10-23T01:10:25.083Z,6.2
2022-10-23T01:15:25.103Z,6.9
2022-10-23T01:20:25.098Z,7
2022-10-23T01:25:25.122Z,7.2
2022-10-23T01:30:25.102Z,7.4
2022-10-23T01:35:25.099Z,6.9
2022-10-23T01:40:25.108Z,6.1
2022-10-23T01:45:25.100Z,6
2022-10-23T01:50:25.106Z,6.3
2022-10-23T01:55:25.107Z,7.5
2022-10-23T02:00:25.105Z,7.5
2022-10-23T02:05:25.113Z,5.5
2022-10-23T02:10:25.111Z,4.4
2022-10-23T02:15:25.104Z,6.1
2022-10-23T02:20:25.108Z,6.8
2022-10-23T02:25:25.108Z,6.2
2022-10-23T02:30:25.098Z,7.9
2022-10-23T02:35:25.109Z,6.6
2022-10-23T02:40:25.113Z,6.2
2022-10-23T02:45:25.106Z,6.1
2022-10-23T02:50:25.108Z,5.2
2022-10-23T02:55:25.094Z,5.2
2022-10-23T03:00:25.114Z,5.4
2022-10-23T03:05:25.225Z,6.9
2022-10-23T03:10:25.094Z,7.3
2022-10-23T03:15:25.116Z,7.3
2022-10-23T03:20:25.105Z,7
2022-10-23T03:25:25.103Z,7.1
2022-10-23T03:30:25.100Z,7.2
2022-10-23T03:35:25.111Z,7.7
2022-10-23T03:40:25.105Z,7.1
2022-10-23T03:45:25.103Z,7.1
2022-10-23T03:50:25.092Z,8.6
2022-10-23T03:55:25.100Z,6.8
2022-10-23T04:00:25.104Z,6.8
2022-10-23T04:05:25.104Z,6.3
2022-10-23T04:10:25.109Z,5.9
2022-10-23T04:15:25.105Z,6.3
2022-10-23T04:20:25.112Z,6.5
2022-10-23T04:25:25.121Z,6.3
2022-10-23T04:30:25.112Z,7.3
2022-10-23T04:35:25.103Z,7
2022-10-23T04:40:25.099Z,7.4
2022-10-23T04:45:25.098Z,7.1
2022-10-23T04:50:25.100Z,7.6
2022-10-23T04:55:25.099Z,7.2
2022-10-23T05:00:25.106Z,6.6
2022-10-23T05:05:25.113Z,6.4
2022-10-23T05:10:25.112Z,8.1
2022-10-23T05:15:25.095Z,7.5
2022-10-23T05:20:25.110Z,8.6
2022-10-23T05:25:25.106Z,8.7
2022-10-23T05:30:25.116Z,7.8
2022-10-23T05:35:25.116Z,6.4
2022-10-23T05:40:25.148Z,8.8
2022-10-23T05:45:25.118Z,11.2
2022-10-23T05:50:25.119Z,9
2022-10-23T05:55:25.110Z,8.1
2022-10-23T06:00:25.101Z,8.1
2022-10-23T06:05:25.101Z,8.2
2022-10-23T06:10:25.098Z,8.5
2022-10-23T06:15:25.117Z,8.8
2022-10-23T06:20:26.523Z,8.5
2022-10-23T06:25:25.124Z,7.2
2022-10-23T06:30:25.131Z,8.8
2022-10-23T06:35:25.108Z,8.9
2022-10-23T06:40:25.095Z,8.3
2022-10-23T06:45:25.099Z,7.7
2022-10-23T06:50:25.103Z,7.1
2022-10-23T06:55:25.139Z,7.1
2022-10-23T07:00:25.096Z,8.1
2022-10-23T07:05:25.117Z,7.6
2022-10-23T07:10:25.105Z,7.9
2022-10-23T07:15:25.106Z,8.4
2022-10-23T07:20:25.113Z,6
2022-10-23T07:25:25.107Z,8.3
2022-10-23T07:30:25.108Z,6.3
2022-10-23T07:35:25.121Z,6.9
2022-10-23T07:40:25.208Z,7.5
2022-10-23T07:45:25.093Z,4.1
2022-10-23T07:50:25.147Z,4
2022-10-23T07:55:25.104Z,5.9
2022-10-23T08:05:25.122Z,4
2022-10-23T08:10:25.127Z,8.4
2022-10-23T08:15:25.115Z,7.1
2022-10-23T08:20:25.099Z,8.7
2022-10-23T08:25:26.038Z,8.4
2022-10-23T08:30:25.102Z,10.1
2022-10-23T08:35:25.132Z,9.5
2022-10-23T08:40:25.114Z,8.4
2022-10-23T08:45:25.114Z,8
2022-10-23T08:50:25.169Z,8.3
2022-10-23T08:55:25.106Z,8.3
2022-10-23T09:00:25.097Z,8.9
2022-10-23T09:05:25.097Z,9.8
2022-10-23T09:10:25.115Z,10.7
2022-10-23T09:15:25.105Z,10.7
2022-10-23T09:20:25.123Z,6.8
2022-10-23T09:25:25.123Z,11.3
2022-10-23T09:30:25.102Z,7.7
2022-10-23T09:35:25.117Z,12.1
2022-10-23T09:40:25.116Z,9.4
2022-10-23T09:45:25.113Z,9.4
2022-10-23T09:50:25.124Z,11.7
2022-10-23T09:55:25.130Z,11.7
2022-10-23T10:00:25.114Z,13.3
2022-10-23T10:05:25.101Z,13.6
2022-10-23T10:10:25.108Z,12.4
2022-10-23T10:15:25.105Z,13
2022-10-23T10:20:25.112Z,14.2
2022-10-23T10:25:25.114Z,12.1
2022-10-23T10:30:25.107Z,12.8
2022-10-23T10:35:25.119Z,12.6
2022-10-23T10:40:25.100Z,9.5
2022-10-23T10:45:25.088Z,11.1
2022-10-23T10:50:25.093Z,13
2022-10-23T10:55:25.100Z,11.3
2022-10-23T11:00:25.094Z,11
2022-10-23T11:05:25.116Z,10.4
2022-10-23T11:10:25.109Z,9.7
2022-10-23T11:15:25.113Z,10.5
2022-10-23T11:20:25.099Z,10.6
2022-10-23T11:25:25.099Z,13.2
2022-10-23T11:30:25.083Z,11.2
2022-10-23T11:35:25.111Z,10.4
2022-10-23T11:40:25.092Z,10.3
2022-10-23T11:45:25.109Z,9.7
2022-10-23T11:50:25.091Z,11.3
2022-10-23T11:55:25.112Z,9.9
2022-10-23T12:00:25.095Z,9.9
2022-10-23T12:05:25.099Z,12.4
2022-10-23T12:10:25.109Z,12.6
2022-10-23T12:15:25.107Z,9.6
2022-10-23T12:20:25.096Z,8.6
2022-10-23T12:25:25.106Z,9.2
2022-10-23T12:30:25.099Z,9.2
2022-10-23T12:35:25.103Z,10.8
2022-10-23T12:40:25.104Z,11.6
2022-10-23T12:45:25.100Z,14.6
2022-10-23T12:50:25.098Z,10.2
2022-10-23T12:55:25.113Z,9.6
2022-10-23T13:00:25.098Z,11.3
2022-10-23T13:05:25.105Z,10.4
2022-10-23T13:10:25.109Z,10.4
2022-10-23T13:15:25.114Z,10.8
2022-10-23T13:20:25.124Z,10.8
2022-10-23T13:25:25.111Z,9.5
2022-10-23T13:30:25.103Z,9.6
2022-10-23T13:35:25.097Z,9.6
2022-10-23T13:40:25.119Z,11.7
2022-10-23T13:45:25.098Z,8.5
2022-10-23T13:50:25.097Z,9.5
2022-10-23T13:55:25.105Z,10.3
2022-10-23T14:00:25.100Z,11.1
2022-10-23T14:05:25.109Z,8.4
2022-10-23T14:10:25.725Z,11.2
2022-10-23T14:15:25.107Z,8.8
2022-10-23T14:20:25.772Z,8
2022-10-23T14:25:25.095Z,9.5
2022-10-23T14:30:25.098Z,8.7
2022-10-23T14:35:25.111Z,8.4
2022-10-23T14:40:25.096Z,8.4
2022-10-23T14:45:25.104Z,6.9
2022-10-23T14:50:25.092Z,6.9
2022-10-23T14:55:25.112Z,6.5
2022-10-23T15:00:25.098Z,6.5
2022-10-23T15:05:25.096Z,6.9
2022-10-23T15:10:25.101Z,7.1
2022-10-23T15:15:25.104Z,8.4
2022-10-23T15:20:25.117Z,8.5
2022-10-23T15:25:25.104Z,7.8
2022-10-23T15:30:25.125Z,6.5
2022-10-23T15:35:25.143Z,7.1
2022-10-23T15:40:25.109Z,0
2022-10-23T15:45:26.513Z,0
2022-10-23T15:50:25.100Z,0
2022-10-23T15:55:25.097Z,0
2022-10-23T16:00:25.124Z,0
2022-10-23T16:05:25.105Z,0
2022-10-23T16:10:25.108Z,4
2022-10-23T16:15:25.127Z,4
2022-10-23T16:20:25.100Z,4.9
2022-10-23T16:25:25.184Z,0
2022-10-23T16:30:25.103Z,4
2022-10-23T16:35:25.112Z,5.4
2022-10-23T16:40:25.096Z,7.1
2022-10-23T16:45:25.109Z,5.2
2022-10-23T16:50:25.103Z,6.4
2022-10-23T16:55:25.127Z,4.7
2022-10-23T17:00:25.098Z,0
2022-10-23T17:05:25.103Z,4.9
2022-10-23T17:10:25.096Z,0
2022-10-23T17:15:25.098Z,0
2022-10-23T17:20:25.113Z,0
2022-10-23T17:25:25.109Z,4
2022-10-23T17:30:25.098Z,4
2022-10-23T17:35:25.096Z,0
2022-10-23T17:40:25.346Z,0
2022-10-23T17:45:25.108Z,0
2022-10-23T17:50:25.090Z,0
2022-10-23T17:55:25.109Z,0
2022-10-23T18:00:25.097Z,4
2022-10-23T18:05:25.095Z,0
2022-10-23T18:10:25.110Z,7.7
2022-10-23T18:15:25.096Z,8
2022-10-23T18:20:25.107Z,14.7
2022-10-23T18:25:25.112Z,14.7
2022-10-23T18:30:25.150Z,15.8
2022-10-23T18:35:25.097Z,12.2
2022-10-23T18:40:27.086Z,9.9
2022-10-23T18:45:25.094Z,11.6
2022-10-23T18:50:25.090Z,12
2022-10-23T18:55:25.119Z,12
2022-10-23T19:00:25.137Z,14.2
2022-10-23T19:05:25.121Z,10.9
2022-10-23T19:10:25.096Z,20.5
2022-10-23T19:15:25.106Z,21.8
2022-10-23T19:20:25.126Z,21.1
2022-10-23T19:25:25.094Z,14.3
2022-10-23T19:30:25.095Z,20.5
2022-10-23T19:35:25.103Z,20.5
2022-10-23T19:40:25.094Z,11.6
2022-10-23T19:45:25.152Z,9.8
2022-10-23T19:50:25.091Z,9.8
2022-10-23T19:55:25.114Z,9.1
2022-10-23T20:00:25.129Z,7.9
2022-10-23T20:05:25.113Z,8.8
2022-10-23T20:10:25.101Z,10.1
2022-10-23T20:15:25.099Z,6.9
2022-10-23T20:20:25.097Z,8.5
2022-10-23T20:25:25.107Z,5.7
2022-10-23T20:30:25.112Z,0
2022-10-23T20:35:25.113Z,6.8
2022-10-23T20:40:25.112Z,6.8
2022-10-23T20:45:25.103Z,7.3
2022-10-23T20:50:25.101Z,7.3
2022-10-23T20:55:25.110Z,7.8
2022-10-23T21:00:25.124Z,7.8
2022-10-23T21:05:25.123Z,6.7
2022-10-23T21:10:25.097Z,6.4
2022-10-23T21:15:25.112Z,4
2022-10-23T21:20:25.101Z,0
2022-10-23T21:25:25.100Z,6.9
2022-10-23T21:30:25.111Z,6.2
2022-10-23T21:35:26.475Z,5.5
2022-10-23T21:40:25.098Z,6.5
2022-10-23T21:45:25.095Z,4
2022-10-23T21:50:25.104Z,5.8
2022-10-23T21:55:25.113Z,8.9
2022-10-23T22:00:25.096Z,8.9
2022-10-23T22:05:25.119Z,6.8
2022-10-23T22:10:25.104Z,10.3
2022-10-23T22:15:25.103Z,10.3
2022-10-23T22:20:25.095Z,10.6
2022-10-23T22:25:25.115Z,10.6
2022-10-23T22:30:25.097Z,15.1
2022-10-23T22:35:25.118Z,15.1
2022-10-23T22:40:25.115Z,14.7
2022-10-23T22:45:25.099Z,10.8
2022-10-23T22:50:25.094Z,12.2
2022-10-23T22:55:25.111Z,11.1
2022-10-23T23:00:25.090Z,9.5
2022-10-23T23:05:25.112Z,9.4
2022-10-23T23:10:25.117Z,8.2
2022-10-23T23:15:25.126Z,7.7
2022-10-23T23:20:25.105Z,7.9
2022-10-23T23:25:25.102Z,9.1
2022-10-23T23:30:25.110Z,9
2022-10-23T23:35:25.094Z,6.4
2022-10-23T23:40:25.110Z,7.9
2022-10-23T23:45:25.116Z,5.5
2022-10-23T23:50:25.092Z,6.6
2022-10-23T23:55:25.110Z,7.2
